sensor_id;sensor_type;location;lat;lon;timestamp;pressure;altitude;pressure_sealevel;temperature;humidity
67038;BME280;53940;53.204;6.590;2022-12-07T00:00:22;101485.47;;;21.48;50.00
67038;BME280;53940;53.204;6.590;2022-12-07T00:03:22;101483.75;;;21.47;50.18
67038;BME280;53940;53.204;6.590;2022-12-07T00:06:23;101480.09;;;21.48;50.36
67038;BME280;53940;53.204;6.590;2022-12-07T00:09:23;101480.09;;;21.48;50.16
67038;BME280;53940;53.204;6.590;2022-12-07T00:12:23;101480.09;;;21.48;50.14
67038;BME280;53940;53.204;6.590;2022-12-07T00:15:24;101482.78;;;21.48;50.25
67038;BME280;53940;53.204;6.590;2022-12-07T00:18:24;101483.75;;;21.47;50.18
67038;BME280;53940;53.204;6.590;2022-12-07T00:21:29;101475.72;;;21.47;49.90
67038;BME280;53940;53.204;6.590;2022-12-07T00:24:30;101473.03;;;21.47;50.02
67038;BME280;53940;53.204;6.590;2022-12-07T00:27:30;101475.72;;;21.47;50.04
67038;BME280;53940;53.204;6.590;2022-12-07T00:30:31;101471.34;;;21.46;50.06
67038;BME280;53940;53.204;6.590;2022-12-07T00:33:32;101467.66;;;21.47;50.04
67038;BME280;53940;53.204;6.590;2022-12-07T00:36:33;101466.81;;;21.46;50.04
67038;BME280;53940;53.204;6.590;2022-12-07T00:39:33;101463.28;;;21.46;49.91
67038;BME280;53940;53.204;6.590;2022-12-07T00:42:34;101471.34;;;21.46;50.37
67038;BME280;53940;53.204;6.590;2022-12-07T00:45:34;101470.47;;;21.45;50.05
67038;BME280;53940;53.204;6.590;2022-12-07T00:48:35;101470.47;;;21.45;49.92
67038;BME280;53940;53.204;6.590;2022-12-07T00:51:35;101464.25;;;21.45;50.24
67038;BME280;53940;53.204;6.590;2022-12-07T00:54:35;101462.56;;;21.44;50.00
67038;BME280;53940;53.204;6.590;2022-12-07T00:57:36;101455.38;;;21.44;50.14
67038;BME280;53940;53.204;6.590;2022-12-07T01:00:38;101457.19;;;21.44;49.90
67038;BME280;53940;53.204;6.590;2022-12-07T01:03:38;101455.50;;;21.43;50.04
67038;BME280;53940;53.204;6.590;2022-12-07T01:06:38;101455.50;;;21.43;50.06
67038;BME280;53940;53.204;6.590;2022-12-07T01:09:39;101460.00;;;21.42;49.90
67038;BME280;53940;53.204;6.590;2022-12-07T01:12:40;101466.22;;;21.43;50.11
67038;BME280;53940;53.204;6.590;2022-12-07T01:15:42;101464.53;;;21.41;50.13
67038;BME280;53940;53.204;6.590;2022-12-07T01:18:47;101452.09;;;21.40;49.87
67038;BME280;53940;53.204;6.590;2022-12-07T01:21:47;101460.16;;;21.40;50.16
67038;BME280;53940;53.204;6.590;2022-12-07T01:24:48;101451.25;;;21.40;50.09
67038;BME280;53940;53.204;6.590;2022-12-07T01:27:48;101462.09;;;21.38;50.01
67038;BME280;53940;53.204;6.590;2022-12-07T01:30:59;101448.69;;;21.38;49.67
67038;BME280;53940;53.204;6.590;2022-12-07T01:34:00;101449.66;;;21.37;50.07
67038;BME280;53940;53.204;6.590;2022-12-07T01:37:01;101468.44;;;21.37;49.86
67038;BME280;53940;53.204;6.590;2022-12-07T01:40:03;101472.09;;;21.36;49.95
67038;BME280;53940;53.204;6.590;2022-12-07T01:43:19;101475.75;;;21.35;49.70
67038;BME280;53940;53.204;6.590;2022-12-07T01:46:19;101475.75;;;21.35;49.54
67038;BME280;53940;53.204;6.590;2022-12-07T01:49:38;101468.72;;;21.34;49.61
67038;BME280;53940;53.204;6.590;2022-12-07T01:52:41;101479.44;;;21.34;49.81
67038;BME280;53940;53.204;6.590;2022-12-07T01:55:46;101472.38;;;21.33;49.52
67038;BME280;53940;53.204;6.590;2022-12-07T01:58:50;101468.72;;;21.34;49.37
67038;BME280;53940;53.204;6.590;2022-12-07T02:01:53;101471.50;;;21.33;49.49
67038;BME280;53940;53.204;6.590;2022-12-07T02:04:55;101466.16;;;21.33;49.65
67038;BME280;53940;53.204;6.590;2022-12-07T02:07:56;101464.31;;;21.33;49.22
67038;BME280;53940;53.204;6.590;2022-12-07T02:10:58;101459.91;;;21.32;49.53
67038;BME280;53940;53.204;6.590;2022-12-07T02:13:58;101455.41;;;21.33;49.35
67038;BME280;53940;53.204;6.590;2022-12-07T02:20:20;101459.91;;;21.32;49.11
67038;BME280;53940;53.204;6.590;2022-12-07T02:26:43;101456.28;;;21.33;49.12
67038;BME280;53940;53.204;6.590;2022-12-07T02:30:10;101450.91;;;21.33;49.25
67038;BME280;53940;53.204;6.590;2022-12-07T02:33:19;101454.56;;;21.32;49.30
67038;BME280;53940;53.204;6.590;2022-12-07T02:36:30;101452.63;;;21.34;48.90
67038;BME280;53940;53.204;6.590;2022-12-07T02:39:42;101448.94;;;21.35;49.01
67038;BME280;53940;53.204;6.590;2022-12-07T02:42:47;101443.59;;;21.35;48.91
67038;BME280;53940;53.204;6.590;2022-12-07T02:45:52;101440.78;;;21.37;49.21
67038;BME280;53940;53.204;6.590;2022-12-07T02:52:34;101439.81;;;21.38;48.83
67038;BME280;53940;53.204;6.590;2022-12-07T02:55:39;101442.38;;;21.39;48.86
67038;BME280;53940;53.204;6.590;2022-12-07T03:08:54;101421.34;;;21.45;48.96
67038;BME280;53940;53.204;6.590;2022-12-07T03:12:43;101412.34;;;21.46;48.81
67038;BME280;53940;53.204;6.590;2022-12-07T03:16:14;101405.00;;;21.48;48.59
67038;BME280;53940;53.204;6.590;2022-12-07T03:19:19;101419.13;;;21.50;48.50
67038;BME280;53940;53.204;6.590;2022-12-07T03:22:21;101427.91;;;21.52;48.75
67038;BME280;53940;53.204;6.590;2022-12-07T03:25:23;101442.75;;;21.56;48.85
67038;BME280;53940;53.204;6.590;2022-12-07T03:28:32;101440.91;;;21.57;48.75
67038;BME280;53940;53.204;6.590;2022-12-07T03:31:39;101433.59;;;21.59;48.74
67038;BME280;53940;53.204;6.590;2022-12-07T03:34:53;101425.41;;;21.60;48.78
67038;BME280;53940;53.204;6.590;2022-12-07T03:38:17;101434.16;;;21.62;48.44
67038;BME280;53940;53.204;6.590;2022-12-07T03:41:29;101426.72;;;21.66;48.62
67038;BME280;53940;53.204;6.590;2022-12-07T03:44:32;101436.44;;;21.67;48.68
67038;BME280;53940;53.204;6.590;2022-12-07T03:47:48;101428.28;;;21.68;48.40
67038;BME280;53940;53.204;6.590;2022-12-07T03:51:17;101423.53;;;21.72;48.56
67038;BME280;53940;53.204;6.590;2022-12-07T03:54:23;101423.41;;;21.74;48.68
67038;BME280;53940;53.204;6.590;2022-12-07T03:57:26;101423.16;;;21.77;48.40
67038;BME280;53940;53.204;6.590;2022-12-07T04:00:28;101418.50;;;21.79;48.50
67038;BME280;53940;53.204;6.590;2022-12-07T04:03:28;101413.84;;;21.81;48.35
67038;BME280;53940;53.204;6.590;2022-12-07T04:06:29;101413.72;;;21.83;48.39
67038;BME280;53940;53.204;6.590;2022-12-07T04:09:29;101416.25;;;21.84;48.51
67038;BME280;53940;53.204;6.590;2022-12-07T04:12:29;101417.69;;;21.88;48.58
67038;BME280;53940;53.204;6.590;2022-12-07T04:15:30;101416.72;;;21.89;48.79
67038;BME280;53940;53.204;6.590;2022-12-07T04:18:30;101424.47;;;21.92;48.37
67038;BME280;53940;53.204;6.590;2022-12-07T04:21:30;101413.75;;;21.92;48.64
67038;BME280;53940;53.204;6.590;2022-12-07T04:24:32;101413.50;;;21.96;48.76
67038;BME280;53940;53.204;6.590;2022-12-07T04:27:32;101415.19;;;21.97;48.76
67038;BME280;53940;53.204;6.590;2022-12-07T04:30:33;101408.72;;;21.99;48.70
67038;BME280;53940;53.204;6.590;2022-12-07T04:33:35;101409.41;;;22.01;48.52
67038;BME280;53940;53.204;6.590;2022-12-07T04:36:35;101410.28;;;22.02;48.79
67038;BME280;53940;53.204;6.590;2022-12-07T04:39:36;101416.34;;;22.04;48.74
67038;BME280;53940;53.204;6.590;2022-12-07T04:42:37;101421.59;;;22.05;48.59
67038;BME280;53940;53.204;6.590;2022-12-07T04:45:37;101419.72;;;22.06;48.68
67038;BME280;53940;53.204;6.590;2022-12-07T04:48:37;101409.75;;;22.08;48.50
67038;BME280;53940;53.204;6.590;2022-12-07T04:51:38;101410.44;;;22.10;48.73
67038;BME280;53940;53.204;6.590;2022-12-07T04:54:38;101405.06;;;22.10;48.55
67038;BME280;53940;53.204;6.590;2022-12-07T04:57:39;101394.22;;;22.12;48.80
67038;BME280;53940;53.204;6.590;2022-12-07T05:00:39;101398.59;;;22.13;48.73
67038;BME280;53940;53.204;6.590;2022-12-07T05:03:40;101393.22;;;22.13;48.68
67038;BME280;53940;53.204;6.590;2022-12-07T05:06:40;101390.41;;;22.14;48.51
67038;BME280;53940;53.204;6.590;2022-12-07T05:09:41;101397.47;;;22.15;48.65
67038;BME280;53940;53.204;6.590;2022-12-07T05:12:41;101389.28;;;22.17;48.72
67038;BME280;53940;53.204;6.590;2022-12-07T05:15:41;101399.16;;;22.16;48.63
67038;BME280;53940;53.204;6.590;2022-12-07T05:18:44;101399.03;;;22.18;48.64
67038;BME280;53940;53.204;6.590;2022-12-07T05:21:44;101397.34;;;22.17;48.65
67038;BME280;53940;53.204;6.590;2022-12-07T05:24:44;101397.19;;;22.18;48.77
67038;BME280;53940;53.204;6.590;2022-12-07T05:27:45;101402.53;;;22.18;48.63
67038;BME280;53940;53.204;6.590;2022-12-07T05:30:45;101392.81;;;22.17;48.42
67038;BME280;53940;53.204;6.590;2022-12-07T05:33:45;101385.59;;;22.18;48.72
67038;BME280;53940;53.204;6.590;2022-12-07T05:36:46;101392.66;;;22.19;48.63
67038;BME280;53940;53.204;6.590;2022-12-07T05:39:46;101394.50;;;22.18;48.81
67038;BME280;53940;53.204;6.590;2022-12-07T05:42:47;101388.13;;;22.19;48.61
67038;BME280;53940;53.204;6.590;2022-12-07T05:45:47;101392.66;;;22.19;48.62
67038;BME280;53940;53.204;6.590;2022-12-07T05:48:48;101382.75;;;22.19;48.70
67038;BME280;53940;53.204;6.590;2022-12-07T05:51:48;101390.00;;;22.19;48.75
67038;BME280;53940;53.204;6.590;2022-12-07T05:54:48;101387.31;;;22.19;48.68
67038;BME280;53940;53.204;6.590;2022-12-07T05:57:49;101382.75;;;22.19;48.60
67038;BME280;53940;53.204;6.590;2022-12-07T06:01:07;101384.63;;;22.19;48.64
67038;BME280;53940;53.204;6.590;2022-12-07T06:04:08;101382.75;;;22.19;48.76
67038;BME280;53940;53.204;6.590;2022-12-07T06:07:10;101382.75;;;22.19;48.54
67038;BME280;53940;53.204;6.590;2022-12-07T06:10:10;101398.88;;;22.19;48.48
67038;BME280;53940;53.204;6.590;2022-12-07T06:13:11;101403.41;;;22.19;48.66
67038;BME280;53940;53.204;6.590;2022-12-07T06:16:11;101393.50;;;22.19;48.62
67038;BME280;53940;53.204;6.590;2022-12-07T06:19:11;101391.81;;;22.18;48.67
67038;BME280;53940;53.204;6.590;2022-12-07T06:22:12;101386.44;;;22.18;48.79
67038;BME280;53940;53.204;6.590;2022-12-07T06:25:13;101381.06;;;22.18;48.54
67038;BME280;53940;53.204;6.590;2022-12-07T06:28:13;101382.06;;;22.17;48.77
67038;BME280;53940;53.204;6.590;2022-12-07T06:31:14;101384.75;;;22.17;48.64
67038;BME280;53940;53.204;6.590;2022-12-07T06:34:17;101378.56;;;22.17;48.73
67038;BME280;53940;53.204;6.590;2022-12-07T06:37:17;101378.69;;;22.15;48.70
67038;BME280;53940;53.204;6.590;2022-12-07T06:40:18;101376.81;;;22.16;48.76
67038;BME280;53940;53.204;6.590;2022-12-07T06:43:18;101381.34;;;22.15;48.48
67038;BME280;53940;53.204;6.590;2022-12-07T06:46:18;101383.06;;;22.16;48.55
67038;BME280;53940;53.204;6.590;2022-12-07T06:49:19;101380.50;;;22.15;48.56
67038;BME280;53940;53.204;6.590;2022-12-07T06:52:19;101377.09;;;22.13;48.72
67038;BME280;53940;53.204;6.590;2022-12-07T06:55:20;101384.16;;;22.14;48.61
67038;BME280;53940;53.204;6.590;2022-12-07T06:58:20;101383.31;;;22.13;48.67
67038;BME280;53940;53.204;6.590;2022-12-07T07:01:20;101381.63;;;22.12;48.63
67038;BME280;53940;53.204;6.590;2022-12-07T07:04:21;101392.34;;;22.12;48.53
67038;BME280;53940;53.204;6.590;2022-12-07T07:07:21;101401.41;;;22.11;48.56
67038;BME280;53940;53.204;6.590;2022-12-07T07:10:22;101426.53;;;22.10;48.44
67038;BME280;53940;53.204;6.590;2022-12-07T07:13:22;101437.28;;;22.10;48.54
67038;BME280;53940;53.204;6.590;2022-12-07T07:16:23;101437.41;;;22.08;48.40
67038;BME280;53940;53.204;6.590;2022-12-07T07:19:24;101434.72;;;22.08;48.55
67038;BME280;53940;53.204;6.590;2022-12-07T07:22:24;101433.91;;;22.08;48.31
67038;BME280;53940;53.204;6.590;2022-12-07T07:25:24;101416.06;;;22.07;48.55
67038;BME280;53940;53.204;6.590;2022-12-07T07:28:25;101408.00;;;22.07;48.38
67038;BME280;53940;53.204;6.590;2022-12-07T07:31:25;101401.81;;;22.06;48.64
67038;BME280;53940;53.204;6.590;2022-12-07T07:34:25;101398.25;;;22.06;48.37
67038;BME280;53940;53.204;6.590;2022-12-07T07:37:26;101401.94;;;22.05;48.61
67038;BME280;53940;53.204;6.590;2022-12-07T07:40:27;101406.31;;;22.06;48.31
67038;BME280;53940;53.204;6.590;2022-12-07T07:43:29;101402.94;;;22.04;48.50
67038;BME280;53940;53.204;6.590;2022-12-07T07:46:29;101402.22;;;22.02;48.64
67038;BME280;53940;53.204;6.590;2022-12-07T07:49:30;101402.22;;;22.02;48.50
67038;BME280;53940;53.204;6.590;2022-12-07T07:52:31;101409.28;;;22.03;48.39
67038;BME280;53940;53.204;6.590;2022-12-07T07:55:31;101402.22;;;22.02;48.43
67038;BME280;53940;53.204;6.590;2022-12-07T07:58:31;101396.84;;;22.02;48.44
67038;BME280;53940;53.204;6.590;2022-12-07T08:01:32;101409.28;;;22.03;48.50
67038;BME280;53940;53.204;6.590;2022-12-07T08:04:32;101412.97;;;22.02;48.58
67038;BME280;53940;53.204;6.590;2022-12-07T08:07:32;101408.41;;;22.02;48.60
67038;BME280;53940;53.204;6.590;2022-12-07T08:10:33;101406.72;;;22.01;48.48
67038;BME280;53940;53.204;6.590;2022-12-07T08:13:35;101404.03;;;22.01;48.58
67038;BME280;53940;53.204;6.590;2022-12-07T08:16:37;101411.22;;;22.01;48.71
67038;BME280;53940;53.204;6.590;2022-12-07T08:19:37;101401.50;;;22.00;48.77
67038;BME280;53940;53.204;6.590;2022-12-07T08:22:38;101397.09;;;21.99;48.68
67038;BME280;53940;53.204;6.590;2022-12-07T08:25:39;101400.78;;;21.98;48.60
67038;BME280;53940;53.204;6.590;2022-12-07T08:28:40;101401.66;;;21.98;48.71
67038;BME280;53940;53.204;6.590;2022-12-07T08:31:40;101404.47;;;21.97;48.51
67038;BME280;53940;53.204;6.590;2022-12-07T08:34:41;101406.41;;;21.94;48.43
67038;BME280;53940;53.204;6.590;2022-12-07T08:37:41;101415.44;;;21.93;48.76
67038;BME280;53940;53.204;6.590;2022-12-07T08:40:41;101421.81;;;21.92;48.64
67038;BME280;53940;53.204;6.590;2022-12-07T08:43:42;101428.16;;;21.91;48.66
67038;BME280;53940;53.204;6.590;2022-12-07T08:47:02;101436.34;;;21.90;48.94
67038;BME280;53940;53.204;6.590;2022-12-07T08:50:06;101429.16;;;21.90;48.80
67038;BME280;53940;53.204;6.590;2022-12-07T08:53:08;101429.28;;;21.89;48.70
67038;BME280;53940;53.204;6.590;2022-12-07T08:56:09;101421.34;;;21.87;48.81
67038;BME280;53940;53.204;6.590;2022-12-07T08:59:10;101419.66;;;21.86;48.63
67038;BME280;53940;53.204;6.590;2022-12-07T09:02:10;101419.66;;;21.86;48.93
67038;BME280;53940;53.204;6.590;2022-12-07T09:05:11;101419.66;;;21.86;49.00
67038;BME280;53940;53.204;6.590;2022-12-07T09:08:12;101407.22;;;21.85;48.72
67038;BME280;53940;53.204;6.590;2022-12-07T09:11:13;101406.38;;;21.85;48.84
67038;BME280;53940;53.204;6.590;2022-12-07T09:14:13;101410.91;;;21.84;48.76
67038;BME280;53940;53.204;6.590;2022-12-07T09:17:13;101408.34;;;21.83;49.01
67038;BME280;53940;53.204;6.590;2022-12-07T09:20:14;101404.78;;;21.82;49.02
67038;BME280;53940;53.204;6.590;2022-12-07T09:23:15;101415.41;;;21.84;48.87
67038;BME280;53940;53.204;6.590;2022-12-07T09:26:15;101402.09;;;21.82;49.09
67038;BME280;53940;53.204;6.590;2022-12-07T09:29:15;101413.72;;;21.83;49.10
67038;BME280;53940;53.204;6.590;2022-12-07T09:32:16;101408.47;;;21.81;49.08
67038;BME280;53940;53.204;6.590;2022-12-07T09:35:16;101409.44;;;21.80;48.81
67038;BME280;53940;53.204;6.590;2022-12-07T09:38:18;101414.81;;;21.80;49.10
67038;BME280;53940;53.204;6.590;2022-12-07T09:41:19;101415.81;;;21.79;48.84
67038;BME280;53940;53.204;6.590;2022-12-07T09:44:24;101424.84;;;21.78;49.08
67038;BME280;53940;53.204;6.590;2022-12-07T09:47:25;101431.19;;;21.77;48.91
67038;BME280;53940;53.204;6.590;2022-12-07T09:50:28;101424.84;;;21.78;49.24
67038;BME280;53940;53.204;6.590;2022-12-07T09:53:36;101429.47;;;21.76;49.19
67038;BME280;53940;53.204;6.590;2022-12-07T09:56:37;101427.78;;;21.75;49.03
67038;BME280;53940;53.204;6.590;2022-12-07T09:59:39;101414.25;;;21.76;49.00
67038;BME280;53940;53.204;6.590;2022-12-07T10:02:57;101417.03;;;21.75;48.99
67038;BME280;53940;53.204;6.590;2022-12-07T10:05:58;101404.63;;;21.74;49.18
67038;BME280;53940;53.204;6.590;2022-12-07T10:08:59;101401.81;;;21.75;48.99
67038;BME280;53940;53.204;6.590;2022-12-07T10:12:08;101400.94;;;21.75;49.17
67038;BME280;53940;53.204;6.590;2022-12-07T10:15:09;101396.44;;;21.75;48.96
67038;BME280;53940;53.204;6.590;2022-12-07T10:18:25;101401.81;;;21.75;49.00
67038;BME280;53940;53.204;6.590;2022-12-07T10:21:26;101404.50;;;21.75;49.29
67038;BME280;53940;53.204;6.590;2022-12-07T10:24:27;101402.66;;;21.76;49.33
67038;BME280;53940;53.204;6.590;2022-12-07T10:27:32;101402.66;;;21.76;49.00
67038;BME280;53940;53.204;6.590;2022-12-07T10:30:33;101396.31;;;21.77;48.97
67038;BME280;53940;53.204;6.590;2022-12-07T10:34:00;101405.31;;;21.76;48.98
67038;BME280;53940;53.204;6.590;2022-12-07T10:40:25;101403.50;;;21.76;48.91
67038;BME280;53940;53.204;6.590;2022-12-07T10:43:26;101397.28;;;21.76;48.95
67038;BME280;53940;53.204;6.590;2022-12-07T10:46:43;101386.53;;;21.76;48.85
67038;BME280;53940;53.204;6.590;2022-12-07T10:53:27;101371.31;;;21.76;49.00
67038;BME280;53940;53.204;6.590;2022-12-07T10:59:52;101372.44;;;21.74;48.86
67038;BME280;53940;53.204;6.590;2022-12-07T11:06:35;101364.66;;;21.71;49.00
67038;BME280;53940;53.204;6.590;2022-12-07T11:12:59;101372.94;;;21.67;48.95
67038;BME280;53940;53.204;6.590;2022-12-07T11:16:24;101371.25;;;21.66;48.70
67038;BME280;53940;53.204;6.590;2022-12-07T11:23:16;101340.03;;;21.65;49.10
67038;BME280;53940;53.204;6.590;2022-12-07T11:26:37;101337.34;;;21.65;48.74
67038;BME280;53940;53.204;6.590;2022-12-07T11:33:08;101329.44;;;21.64;49.00
67038;BME280;53940;53.204;6.590;2022-12-07T11:36:42;101334.63;;;21.77;48.52
67038;BME280;53940;53.204;6.590;2022-12-07T11:39:49;101323.63;;;21.90;48.41
67038;BME280;53940;53.204;6.590;2022-12-07T11:43:01;101322.81;;;21.89;48.20
67038;BME280;53940;53.204;6.590;2022-12-07T11:49:15;101307.25;;;21.83;48.69
67038;BME280;53940;53.204;6.590;2022-12-07T11:52:25;101319.09;;;21.80;48.50
67038;BME280;53940;53.204;6.590;2022-12-07T11:55:39;101320.22;;;21.78;48.90
67038;BME280;53940;53.204;6.590;2022-12-07T12:01:58;101307.06;;;21.75;48.65
67038;BME280;53940;53.204;6.590;2022-12-07T12:05:19;101303.66;;;21.73;49.01
67038;BME280;53940;53.204;6.590;2022-12-07T12:08:27;101302.97;;;21.71;49.11
67038;BME280;53940;53.204;6.590;2022-12-07T12:21:27;101294.91;;;21.71;49.18
67038;BME280;53940;53.204;6.590;2022-12-07T12:24:31;101294.16;;;21.68;49.68
67038;BME280;53940;53.204;6.590;2022-12-07T12:27:38;101293.19;;;21.70;49.72
67038;BME280;53940;53.204;6.590;2022-12-07T12:30:40;101288.78;;;21.68;49.61
67038;BME280;53940;53.204;6.590;2022-12-07T12:33:52;101277.22;;;21.68;50.18
67038;BME280;53940;53.204;6.590;2022-12-07T12:36:52;101281.72;;;21.67;49.94
67038;BME280;53940;53.204;6.590;2022-12-07T12:43:44;101269.31;;;21.66;50.18
67038;BME280;53940;53.204;6.590;2022-12-07T12:46:55;101273.81;;;21.66;50.11
67038;BME280;53940;53.204;6.590;2022-12-07T12:50:15;101271.28;;;21.64;50.13
67038;BME280;53940;53.204;6.590;2022-12-07T12:53:24;101266.88;;;21.63;50.26
67038;BME280;53940;53.204;6.590;2022-12-07T12:56:38;101264.19;;;21.63;50.36
67038;BME280;53940;53.204;6.590;2022-12-07T13:02:56;101254.59;;;21.61;50.19
67038;BME280;53940;53.204;6.590;2022-12-07T13:06:17;101261.09;;;21.58;50.23
67038;BME280;53940;53.204;6.590;2022-12-07T13:09:19;101248.66;;;21.57;50.12
67038;BME280;53940;53.204;6.590;2022-12-07T13:12:22;101249.66;;;21.56;49.96
67038;BME280;53940;53.204;6.590;2022-12-07T13:21:42;101237.50;;;21.52;49.57
67038;BME280;53940;53.204;6.590;2022-12-07T13:24:43;101237.34;;;21.53;49.88
67038;BME280;53940;53.204;6.590;2022-12-07T13:27:48;101241.03;;;21.52;49.49
67038;BME280;53940;53.204;6.590;2022-12-07T13:31:03;101237.63;;;21.50;49.62
67038;BME280;53940;53.204;6.590;2022-12-07T13:34:34;101248.50;;;21.49;49.60
67038;BME280;53940;53.204;6.590;2022-12-07T13:37:35;101256.53;;;21.49;49.73
67038;BME280;53940;53.204;6.590;2022-12-07T13:40:35;101257.53;;;21.48;49.82
67038;BME280;53940;53.204;6.590;2022-12-07T13:44:00;101265.69;;;21.46;49.60
67038;BME280;53940;53.204;6.590;2022-12-07T13:47:36;101264.13;;;21.44;49.62
67038;BME280;53940;53.204;6.590;2022-12-07T13:50:41;101241.00;;;21.43;49.58
67038;BME280;53940;53.204;6.590;2022-12-07T13:54:09;101239.28;;;21.41;49.68
67038;BME280;53940;53.204;6.590;2022-12-07T13:57:10;101229.81;;;21.37;49.59
67038;BME280;53940;53.204;6.590;2022-12-07T14:00:20;101231.66;;;21.37;49.64
67038;BME280;53940;53.204;6.590;2022-12-07T14:03:33;101229.81;;;21.37;49.85
67038;BME280;53940;53.204;6.590;2022-12-07T14:06:34;101225.44;;;21.36;49.66
67038;BME280;53940;53.204;6.590;2022-12-07T14:09:34;101222.88;;;21.35;49.71
67038;BME280;53940;53.204;6.590;2022-12-07T14:12:36;101220.22;;;21.35;49.54
67038;BME280;53940;53.204;6.590;2022-12-07T14:15:37;101218.38;;;21.35;49.73
67038;BME280;53940;53.204;6.590;2022-12-07T14:18:40;101219.50;;;21.33;49.50
67038;BME280;53940;53.204;6.590;2022-12-07T14:21:40;101220.38;;;21.33;49.70
67038;BME280;53940;53.204;6.590;2022-12-07T14:24:44;101220.38;;;21.33;49.89
67038;BME280;53940;53.204;6.590;2022-12-07T14:27:59;101221.31;;;21.32;49.50
67038;BME280;53940;53.204;6.590;2022-12-07T14:31:00;101218.66;;;21.32;49.42
67038;BME280;53940;53.204;6.590;2022-12-07T14:34:01;101223.19;;;21.32;49.58
67038;BME280;53940;53.204;6.590;2022-12-07T14:37:01;101224.00;;;21.32;49.53
67038;BME280;53940;53.204;6.590;2022-12-07T14:40:02;101218.66;;;21.32;49.50
67038;BME280;53940;53.204;6.590;2022-12-07T14:43:05;101223.19;;;21.32;49.46
67038;BME280;53940;53.204;6.590;2022-12-07T14:46:06;101229.38;;;21.32;49.55
67038;BME280;53940;53.204;6.590;2022-12-07T14:49:07;101236.44;;;21.33;49.89
67038;BME280;53940;53.204;6.590;2022-12-07T14:52:14;101230.22;;;21.33;49.74
67038;BME280;53940;53.204;6.590;2022-12-07T14:58:24;101215.00;;;21.33;49.71
67038;BME280;53940;53.204;6.590;2022-12-07T15:01:24;101216.69;;;21.34;49.61
67038;BME280;53940;53.204;6.590;2022-12-07T15:04:25;101200.44;;;21.36;49.61
67038;BME280;53940;53.204;6.590;2022-12-07T15:07:25;101202.31;;;21.35;49.33
67038;BME280;53940;53.204;6.590;2022-12-07T15:10:30;101205.69;;;21.37;49.47
67038;BME280;53940;53.204;6.590;2022-12-07T15:13:31;101194.97;;;21.37;49.72
67038;BME280;53940;53.204;6.590;2022-12-07T15:16:51;101193.97;;;21.38;49.47
67038;BME280;53940;53.204;6.590;2022-12-07T15:19:51;101196.66;;;21.38;49.32
67038;BME280;53940;53.204;6.590;2022-12-07T15:22:51;101195.69;;;21.39;49.28
67038;BME280;53940;53.204;6.590;2022-12-07T15:25:52;101198.38;;;21.39;49.45
67038;BME280;53940;53.204;6.590;2022-12-07T15:28:53;101198.22;;;21.41;49.36
67038;BME280;53940;53.204;6.590;2022-12-07T15:31:54;101191.03;;;21.41;49.25
67038;BME280;53940;53.204;6.590;2022-12-07T15:34:55;101184.81;;;21.41;49.28
67038;BME280;53940;53.204;6.590;2022-12-07T15:37:55;101181.13;;;21.42;49.46
67038;BME280;53940;53.204;6.590;2022-12-07T15:40:56;101180.31;;;21.41;49.35
67038;BME280;53940;53.204;6.590;2022-12-07T15:43:56;101175.78;;;21.42;49.37
67038;BME280;53940;53.204;6.590;2022-12-07T15:47:15;101172.97;;;21.44;49.24
67038;BME280;53940;53.204;6.590;2022-12-07T15:50:18;101162.38;;;21.42;49.46
67038;BME280;53940;53.204;6.590;2022-12-07T15:53:18;101167.59;;;21.44;49.47
67038;BME280;53940;53.204;6.590;2022-12-07T15:56:19;101163.22;;;21.43;49.24
67038;BME280;53940;53.204;6.590;2022-12-07T15:59:19;101161.41;;;21.43;49.42
67038;BME280;53940;53.204;6.590;2022-12-07T16:02:19;101163.09;;;21.44;49.47
67038;BME280;53940;53.204;6.590;2022-12-07T16:05:23;101160.44;;;21.44;49.18
67038;BME280;53940;53.204;6.590;2022-12-07T16:08:23;101158.56;;;21.45;49.40
67038;BME280;53940;53.204;6.590;2022-12-07T16:11:23;101156.88;;;21.44;49.21
67038;BME280;53940;53.204;6.590;2022-12-07T16:14:24;101158.56;;;21.45;49.40
67038;BME280;53940;53.204;6.590;2022-12-07T16:17:24;101152.38;;;21.44;49.13
67038;BME280;53940;53.204;6.590;2022-12-07T16:20:24;101146.16;;;21.44;49.22
67038;BME280;53940;53.204;6.590;2022-12-07T16:23:26;101150.53;;;21.45;49.32
67038;BME280;53940;53.204;6.590;2022-12-07T16:26:26;101163.09;;;21.44;49.24
67038;BME280;53940;53.204;6.590;2022-12-07T16:29:26;101162.25;;;21.44;49.12
67038;BME280;53940;53.204;6.590;2022-12-07T16:32:27;101160.56;;;21.43;49.21
67038;BME280;53940;53.204;6.590;2022-12-07T16:35:27;101161.41;;;21.43;49.32
67038;BME280;53940;53.204;6.590;2022-12-07T16:38:28;101154.19;;;21.44;49.22
67038;BME280;53940;53.204;6.590;2022-12-07T16:41:28;101141.66;;;21.44;49.24
67038;BME280;53940;53.204;6.590;2022-12-07T16:44:28;101137.13;;;21.45;49.53
67038;BME280;53940;53.204;6.590;2022-12-07T16:47:30;101126.41;;;21.45;49.49
67038;BME280;53940;53.204;6.590;2022-12-07T16:50:30;101140.53;;;21.47;49.26
67038;BME280;53940;53.204;6.590;2022-12-07T16:53:31;101131.50;;;21.48;49.20
67038;BME280;53940;53.204;6.590;2022-12-07T16:56:31;101113.72;;;21.47;49.37
67038;BME280;53940;53.204;6.590;2022-12-07T16:59:32;101103.81;;;21.47;49.54
67038;BME280;53940;53.204;6.590;2022-12-07T17:02:32;101096.66;;;21.48;49.50
67038;BME280;53940;53.204;6.590;2022-12-07T17:05:32;101093.09;;;21.47;49.48
67038;BME280;53940;53.204;6.590;2022-12-07T17:08:33;101098.47;;;21.47;49.36
67038;BME280;53940;53.204;6.590;2022-12-07T17:11:33;101093.09;;;21.47;49.42
67038;BME280;53940;53.204;6.590;2022-12-07T17:14:33;101097.63;;;21.47;49.31
67038;BME280;53940;53.204;6.590;2022-12-07T17:17:55;101096.66;;;21.48;49.75